Ralph Wenz Field
KPNA : now visible

Airfield :











YOU CAN JOIN US ON...

 
LOGIN :

Register | Disclaimer

   EN    FR    IT 

 









Legend :    VFR   Marginal VFR   IFR   Intensive IFR   Very Intensive IFR
Visi :
Ceiling :
>= 8 km
>= 3000ft
5 to 8 km
1000 to 3000 ft
1500m to 5 km
500 to 1000 ft
800 to 1500m
200 to 500 ft
< 800m
< 200 ft
Symbols :   Thunderstorms  Fog  Heavy snow  Heavy precipitations  Wind > 20 kt






- Airport Elevation : 7102 ft


KPNA - Ralph Wenz Field

CURRENT METAR :
  • 272150Z AUTO 30019KT 10SM CLR M06/M15 A2979 RMK AO2

EXPIRED METARs :
  • 272130Z AUTO 29018G21KT 10SM CLR M06/M15 A2978 RMK AO2
  • 272110Z AUTO 30018G22KT 10SM CLR M06/M14 A2977 RMK AO2
  • 272050Z AUTO 30017KT 10SM CLR M06/M13 A2977 RMK AO2
  • 272030Z AUTO 30017G21KT 4SM HZ CLR M06/M13 A2976 RMK AO2
  • 272010Z AUTO 30020KT 5SM HZ CLR M06/M13 A2975 RMK AO2
  • 271950Z AUTO 30017KT 10SM CLR M06/M13 A2975 RMK AO2
  • 271930Z AUTO 31019G23KT 10SM CLR M06/M13 A2975 RMK AO2
  • 271910Z AUTO 30017KT 10SM CLR M07/M14 A2975 RMK AO2
  • 271850Z AUTO 30016KT 10SM CLR M06/M14 A2975 RMK AO2

TAF KPNA
Valid from the 27 at 18:00 until the 28 at 18:00 UTC


271727Z 2718/2818 30004KT P6SM SCT050
FM272000 29014G22KT P6SM VCSH BKN050
FM280100 30010KT P6SM SCT050 SCT070
KZLC FIR / North America



MET'MAP, your aeronautical weather chart ! - Copyright ORBIFLY December 2007 - Disclaimer

ORBIFLY MET'MAP TEAM :

Programming & Development : Alexandra Zaïnal
Concept & original design : Baudouin d'Aumeries
Assistance for programming : Marc-Olivier Méhu
Technical & hardware support : Manuel Goepfert

Contact : metmap@orbifly.com




SOURCES & CREDITS :

   NOAA       Earth
Advisory